Time;durP1;ratioP1;P1;durP2;ratioP2;P2;SDS_P1;SDS_P2;PMS_P1;PMS_P2;Temp;Humidity;BMP_temperature;BMP_pressure;BME280_temperature;BME280_humidity;BME280_pressure;Samples;Min_cycle;Max_cycle;Signal;HPM_P1;HPM_P2
2022/06/13 00:00:16;;;;;;;4.35;1.85;;;;;;;;;;5046803;28;20127;-75
2022/06/13 00:02:41;;;;;;;7.32;2.85;;;;;;;;;;5048653;28;20115;-75
2022/06/13 00:05:08;;;;;;;6.35;2.58;;;;;;;;;;5048991;28;20124;-75
2022/06/13 00:07:34;;;;;;;5.00;2.00;;;;;;;;;;5048353;28;20021;-75
2022/06/13 00:09:59;;;;;;;4.47;1.80;;;;;;;;;;5048434;28;20482;-74
2022/06/13 00:12:24;;;;;;;7.82;1.98;;;;;;;;;;5048759;28;20509;-75
2022/06/13 00:14:50;;;;;;;3.08;1.77;;;;;;;;;;5048465;28;20162;-74
2022/06/13 00:17:15;;;;;;;5.72;1.80;;;;;;;;;;5048360;28;20029;-74
2022/06/13 00:19:41;;;;;;;5.03;1.83;;;;;;;;;;5048276;28;20021;-74
2022/06/13 00:22:06;;;;;;;3.53;1.60;;;;;;;;;;5048472;28;20414;-74
2022/06/13 00:24:32;;;;;;;3.63;1.85;;;;;;;;;;5048712;28;20032;-74
2022/06/13 00:26:58;;;;;;;7.75;1.60;;;;;;;;;;5048088;28;20387;-74
2022/06/13 00:29:23;;;;;;;6.53;1.90;;;;;;;;;;5047959;28;20027;-75
2022/06/13 00:31:49;;;;;;;4.22;1.70;;;;;;;;;;5048488;28;20391;-74
2022/06/13 00:34:14;;;;;;;6.72;1.85;;;;;;;;;;5048354;28;20037;-74
2022/06/13 00:36:39;;;;;;;6.20;2.00;;;;;;;;;;5048317;28;20539;-74
2022/06/13 00:39:05;;;;;;;3.17;1.80;;;;;;;;;;5048225;28;20676;-74
2022/06/13 00:41:34;;;;;;;4.13;1.52;;;;;;;;;;5048706;28;20432;-74
2022/06/13 00:44:00;;;;;;;6.82;2.47;;;;;;;;;;5048090;28;20475;-74
2022/06/13 00:46:31;;;;;;;7.40;2.55;;;;;;;;;;5048299;28;20036;-74
2022/06/13 00:49:05;;;;;;;7.00;2.15;;;;;;;;;;5047786;28;20031;-74
2022/06/13 00:51:34;;;;;;;6.05;2.47;;;;;;;;;;5048128;28;20033;-74
2022/06/13 00:54:00;;;;;;;8.75;2.00;;;;;;;;;;5048220;28;20413;-74
2022/06/13 00:56:28;;;;;;;7.05;2.30;;;;;;;;;;5047998;28;20040;-75
2022/06/13 00:58:58;;;;;;;5.38;2.00;;;;;;;;;;5047980;28;20086;-74
2022/06/13 01:01:24;;;;;;;4.07;1.90;;;;;;;;;;5048357;28;20401;-74
2022/06/13 01:03:51;;;;;;;4.57;1.65;;;;;;;;;;5048121;28;20036;-74
2022/06/13 01:06:17;;;;;;;6.28;1.73;;;;;;;;;;5048278;28;20044;-74
2022/06/13 01:08:43;;;;;;;3.72;1.67;;;;;;;;;;5047988;28;20149;-74
2022/06/13 01:11:19;;;;;;;5.75;1.90;;;;;;;;;;5048338;28;20033;-74
2022/06/13 01:13:56;;;;;;;4.22;1.98;;;;;;;;;;5052356;28;20042;-74
2022/06/13 01:16:30;;;;;;;5.15;2.42;;;;;;;;;;5052384;28;20433;-74
2022/06/13 01:19:14;;;;;;;4.35;1.80;;;;;;;;;;5051666;28;20482;-74
2022/06/13 01:22:02;;;;;;;4.40;2.22;;;;;;;;;;5051940;28;20029;-74
2022/06/13 01:25:11;;;;;;;4.22;2.00;;;;;;;;;;5030140;28;20613;-74
2022/06/13 01:28:08;;;;;;;3.08;1.88;;;;;;;;;;5051936;28;20051;-75
2022/06/13 01:30:39;;;;;;;4.53;1.85;;;;;;;;;;5051633;28;20021;-75
2022/06/13 01:33:32;;;;;;;4.95;2.10;;;;;;;;;;5051452;28;20040;-75
2022/06/13 01:36:01;;;;;;;4.20;2.00;;;;;;;;;;5051518;28;20025;-75
2022/06/13 01:38:58;;;;;;;4.15;1.77;;;;;;;;;;5051270;28;20025;-75
2022/06/13 01:41:30;;;;;;;4.68;1.90;;;;;;;;;;5051834;28;20021;-74
2022/06/13 01:44:17;;;;;;;5.13;2.20;;;;;;;;;;5051524;28;20037;-75
2022/06/13 01:46:57;;;;;;;4.20;2.03;;;;;;;;;;5051534;28;20041;-74
2022/06/13 01:49:33;;;;;;;5.78;2.38;;;;;;;;;;5051005;28;20162;-74
2022/06/13 01:52:16;;;;;;;4.90;1.67;;;;;;;;;;5051294;28;20033;-74
2022/06/13 01:54:52;;;;;;;3.30;1.75;;;;;;;;;;5051193;28;20166;-74
2022/06/13 01:57:50;;;;;;;4.53;1.85;;;;;;;;;;5051534;28;20029;-74
2022/06/13 02:00:25;;;;;;;5.18;1.80;;;;;;;;;;5051208;28;20166;-74
2022/06/13 02:03:02;;;;;;;7.28;2.30;;;;;;;;;;5051148;28;20039;-74
2022/06/13 02:05:36;;;;;;;6.68;2.10;;;;;;;;;;5051093;28;20364;-74
2022/06/13 02:08:25;;;;;;;4.25;1.98;;;;;;;;;;5050597;28;20029;-74
2022/06/13 02:10:57;;;;;;;3.97;1.90;;;;;;;;;;5050846;28;20043;-74
2022/06/13 02:13:36;;;;;;;4.57;1.75;;;;;;;;;;5050657;28;20367;-75
2022/06/13 02:16:08;;;;;;;4.97;2.20;;;;;;;;;;5050684;28;20094;-75
2022/06/13 02:18:39;;;;;;;3.50;2.10;;;;;;;;;;5050779;28;20052;-75
2022/06/13 02:21:10;;;;;;;6.43;2.30;;;;;;;;;;5050709;28;20017;-75
2022/06/13 02:23:40;;;;;;;2.92;1.98;;;;;;;;;;5049116;28;20402;-75
2022/06/13 02:26:10;;;;;;;3.35;1.85;;;;;;;;;;5050266;28;20482;-75
2022/06/13 02:29:00;;;;;;;3.00;1.98;;;;;;;;;;5050300;28;20039;-75
2022/06/13 02:31:34;;;;;;;6.78;2.60;;;;;;;;;;5050565;28;20025;-75
2022/06/13 02:34:18;;;;;;;4.55;2.28;;;;;;;;;;5050577;28;20024;-75
2022/06/13 02:36:58;;;;;;;6.03;2.45;;;;;;;;;;5050546;28;20439;-75
2022/06/13 02:39:38;;;;;;;5.45;2.40;;;;;;;;;;5050344;28;20120;-75
2022/06/13 02:42:11;;;;;;;6.63;1.92;;;;;;;;;;5050602;28;20025;-75
2022/06/13 02:44:39;;;;;;;6.63;2.17;;;;;;;;;;5050045;28;20103;-75
2022/06/13 02:47:15;;;;;;;5.93;2.40;;;;;;;;;;5050085;28;20522;-75
2022/06/13 02:49:53;;;;;;;2.65;2.00;;;;;;;;;;5049827;28;20017;-74
2022/06/13 02:52:30;;;;;;;4.53;2.13;;;;;;;;;;5050176;28;20027;-74
2022/06/13 02:54:59;;;;;;;3.55;2.13;;;;;;;;;;5050492;28;20600;-74
2022/06/13 02:57:52;;;;;;;3.15;1.88;;;;;;;;;;5049879;28;20082;-74
2022/06/13 03:00:20;;;;;;;4.18;2.40;;;;;;;;;;5049900;28;20100;-74
2022/06/13 03:03:11;;;;;;;6.28;2.50;;;;;;;;;;5049930;28;20028;-75
2022/06/13 03:06:08;;;;;;;3.83;2.00;;;;;;;;;;5049745;28;20048;-74
2022/06/13 03:08:56;;;;;;;5.00;2.33;;;;;;;;;;5049607;28;20020;-74
2022/06/13 03:11:40;;;;;;;3.50;2.25;;;;;;;;;;5049739;28;20108;-74
2022/06/13 03:14:23;;;;;;;4.45;2.25;;;;;;;;;;5049618;28;20340;-74
2022/06/13 03:17:07;;;;;;;;;;;;;;;;;;5050166;28;20043;-75
2022/06/13 03:20:02;;;;;;;5.63;2.17;;;;;;;;;;5049389;28;19919;-75
2022/06/13 03:22:41;;;;;;;5.13;2.15;;;;;;;;;;5040051;28;20047;-75
2022/06/13 03:25:17;;;;;;;3.90;2.40;;;;;;;;;;5049457;28;20036;-75
2022/06/13 03:27:56;;;;;;;6.40;2.58;;;;;;;;;;5049362;28;20447;-75
2022/06/13 03:30:25;;;;;;;4.85;2.30;;;;;;;;;;5049239;28;20404;-75
2022/06/13 03:35:52;;;;;;;3.78;2.10;;;;;;;;;;5049169;28;20119;-74
2022/06/13 03:38:25;;;;;;;5.00;2.28;;;;;;;;;;5049093;28;20033;-74
2022/06/13 03:40:55;;;;;;;4.00;2.10;;;;;;;;;;5049556;28;20021;-74
2022/06/13 03:43:37;;;;;;;7.50;2.42;;;;;;;;;;5049638;28;20402;-75
2022/06/13 03:46:16;;;;;;;8.10;2.40;;;;;;;;;;5048990;28;20047;-75
2022/06/13 03:49:08;;;;;;;4.55;2.45;;;;;;;;;;5048791;28;20265;-74
2022/06/13 03:51:51;;;;;;;3.15;2.15;;;;;;;;;;5048837;28;20029;-75
2022/06/13 03:54:23;;;;;;;4.45;2.70;;;;;;;;;;5048931;28;20029;-75
2022/06/13 03:57:00;;;;;;;3.60;2.08;;;;;;;;;;5048840;28;20066;-75
2022/06/13 03:59:33;;;;;;;6.43;2.65;;;;;;;;;;5048556;28;20028;-75
2022/06/13 04:02:04;;;;;;;6.40;2.63;;;;;;;;;;5048669;28;20180;-75
2022/06/13 04:04:35;;;;;;;3.75;2.50;;;;;;;;;;5048664;28;20047;-75
2022/06/13 04:07:01;;;;;;;5.37;2.40;;;;;;;;;;5048713;28;20029;-75
2022/06/13 04:09:35;;;;;;;6.57;2.47;;;;;;;;;;5048221;28;20274;-75
2022/06/13 04:12:17;;;;;;;3.10;2.22;;;;;;;;;;5048592;28;20036;-75
2022/06/13 04:15:03;;;;;;;4.20;2.42;;;;;;;;;;5048794;28;20021;-75
2022/06/13 04:18:06;;;;;;;4.32;2.50;;;;;;;;;;5048974;28;20032;-75
2022/06/13 04:20:59;;;;;;;3.45;2.30;;;;;;;;;;5048345;28;20456;-75
2022/06/13 04:23:34;;;;;;;3.65;2.22;;;;;;;;;;5048716;28;20031;-75
2022/06/13 04:26:18;;;;;;;4.50;2.60;;;;;;;;;;5048140;28;20048;-75
2022/06/13 04:28:51;;;;;;;5.53;2.33;;;;;;;;;;5047977;28;20029;-74
2022/06/13 04:31:18;;;;;;;5.13;2.63;;;;;;;;;;5048351;28;20044;-75
2022/06/13 04:33:50;;;;;;;4.35;2.40;;;;;;;;;;5048489;28;20112;-74
2022/06/13 04:36:16;;;;;;;3.63;2.30;;;;;;;;;;5048518;28;20044;-75
2022/06/13 04:38:46;;;;;;;5.20;2.50;;;;;;;;;;5048242;28;20024;-74
2022/06/13 04:41:13;;;;;;;6.90;2.65;;;;;;;;;;5048218;28;20145;-74
2022/06/13 04:43:43;;;;;;;5.93;2.35;;;;;;;;;;5047992;28;20025;-74
2022/06/13 04:46:14;;;;;;;3.72;2.40;;;;;;;;;;5047319;28;20029;-74
2022/06/13 04:48:42;;;;;;;3.33;2.50;;;;;;;;;;5047949;28;20036;-74
2022/06/13 04:51:12;;;;;;;5.78;2.50;;;;;;;;;;5047895;28;20057;-74
2022/06/13 04:54:11;;;;;;;4.78;2.30;;;;;;;;;;5048102;28;20512;-74
2022/06/13 04:56:36;;;;;;;4.57;2.65;;;;;;;;;;5048271;28;20085;-74
2022/06/13 04:59:03;;;;;;;5.15;2.50;;;;;;;;;;5047759;28;20354;-74
2022/06/13 05:01:45;;;;;;;5.22;2.97;;;;;;;;;;5047919;28;20041;-74
2022/06/13 05:04:17;;;;;;;5.00;2.50;;;;;;;;;;5048015;28;20082;-74
2022/06/13 05:06:46;;;;;;;5.13;2.60;;;;;;;;;;5047799;28;20032;-74
2022/06/13 05:09:16;;;;;;;7.05;2.50;;;;;;;;;;5048116;28;20406;-74
2022/06/13 05:12:04;;;;;;;6.90;3.00;;;;;;;;;;5048215;28;20135;-74
2022/06/13 05:14:38;;;;;;;4.13;2.42;;;;;;;;;;5047961;28;20056;-74
2022/06/13 05:17:09;;;;;;;5.82;2.42;;;;;;;;;;5047801;28;20025;-74
2022/06/13 05:19:42;;;;;;;7.22;2.50;;;;;;;;;;5047722;28;20021;-74
2022/06/13 05:22:33;;;;;;;3.88;2.33;;;;;;;;;;5047797;28;20021;-74
2022/06/13 05:25:16;;;;;;;6.97;2.58;;;;;;;;;;5047749;28;20033;-74
2022/06/13 05:27:42;;;;;;;3.53;2.70;;;;;;;;;;5047547;28;20029;-74
2022/06/13 05:30:13;;;;;;;5.47;2.67;;;;;;;;;;5047433;28;20045;-74
2022/06/13 05:32:38;;;;;;;7.97;2.90;;;;;;;;;;5047683;28;20089;-74
2022/06/13 05:35:04;;;;;;;5.40;2.83;;;;;;;;;;5047697;28;20029;-74
2022/06/13 05:37:30;;;;;;;4.18;2.45;;;;;;;;;;5047361;28;20021;-74
2022/06/13 05:39:56;;;;;;;6.88;2.40;;;;;;;;;;5047361;28;20025;-74
2022/06/13 05:42:22;;;;;;;6.50;2.40;;;;;;;;;;5047412;28;20104;-75
2022/06/13 05:44:47;;;;;;;10.77;3.70;;;;;;;;;;5047518;28;20131;-75
2022/06/13 05:47:18;;;;;;;8.57;2.80;;;;;;;;;;5047458;28;20025;-75
2022/06/13 05:49:44;;;;;;;7.82;2.60;;;;;;;;;;5047227;28;20494;-74
2022/06/13 05:52:11;;;;;;;12.07;3.67;;;;;;;;;;5047373;28;20033;-74
2022/06/13 05:54:36;;;;;;;9.05;3.63;;;;;;;;;;5047452;28;20494;-74
2022/06/13 05:57:01;;;;;;;5.53;2.70;;;;;;;;;;5047613;28;20036;-75
2022/06/13 05:59:27;;;;;;;7.07;2.97;;;;;;;;;;5048006;28;20013;-74
2022/06/13 06:01:52;;;;;;;10.50;3.13;;;;;;;;;;5048384;28;20116;-75
2022/06/13 06:04:17;;;;;;;6.95;2.75;;;;;;;;;;5048907;28;20021;-74
2022/06/13 06:06:43;;;;;;;8.20;2.85;;;;;;;;;;5050805;28;20028;-73
2022/06/13 06:09:10;;;;;;;7.22;2.50;;;;;;;;;;5050563;28;20437;-73
2022/06/13 06:11:36;;;;;;;6.70;2.55;;;;;;;;;;5048299;28;20064;-74
2022/06/13 06:14:01;;;;;;;5.75;2.80;;;;;;;;;;5048500;28;20423;-73
2022/06/13 06:16:27;;;;;;;5.78;2.83;;;;;;;;;;5048392;28;20032;-74
2022/06/13 06:18:53;;;;;;;6.20;3.00;;;;;;;;;;5048801;28;20391;-74
2022/06/13 06:21:18;;;;;;;6.25;2.78;;;;;;;;;;5050780;28;20025;-74
2022/06/13 06:23:44;;;;;;;7.05;2.67;;;;;;;;;;5049957;28;20067;-74
2022/06/13 06:26:12;;;;;;;4.70;2.47;;;;;;;;;;5049895;28;20397;-75
2022/06/13 06:28:38;;;;;;;7.13;2.50;;;;;;;;;;5050109;28;20656;-74
2022/06/13 06:31:04;;;;;;;8.88;2.35;;;;;;;;;;5049052;28;20577;-74
2022/06/13 06:33:30;;;;;;;6.88;2.70;;;;;;;;;;5050371;28;20025;-75
2022/06/13 06:35:55;;;;;;;9.63;2.50;;;;;;;;;;5050093;28;20545;-75
2022/06/13 06:38:22;;;;;;;5.78;2.53;;;;;;;;;;5049803;28;20028;-76
2022/06/13 06:40:48;;;;;;;5.82;2.13;;;;;;;;;;5049505;28;20676;-74
2022/06/13 06:43:14;;;;;;;6.07;2.13;;;;;;;;;;5049685;28;20047;-77
2022/06/13 06:45:41;;;;;;;3.60;2.30;;;;;;;;;;5049864;28;20482;-76
2022/06/13 06:48:12;;;;;;;4.60;2.15;;;;;;;;;;5049340;28;20040;-74
2022/06/13 06:50:38;;;;;;;4.05;2.38;;;;;;;;;;5044834;28;20136;-74
2022/06/13 06:53:03;;;;;;;5.70;2.20;;;;;;;;;;5048575;28;20032;-75
2022/06/13 07:01:04;;;;;;;6.85;2.40;;;;;;;;;;5050263;28;20035;-76
2022/06/13 07:03:30;;;;;;;5.88;2.10;;;;;;;;;;5049925;28;20085;-74
2022/06/13 07:05:56;;;;;;;5.18;2.20;;;;;;;;;;5049540;28;20572;-75
2022/06/13 07:08:21;;;;;;;6.60;2.33;;;;;;;;;;5047335;28;20025;-74
2022/06/13 07:10:49;;;;;;;3.17;2.00;;;;;;;;;;5049014;28;20037;-75
2022/06/13 07:13:17;;;;;;;4.63;2.28;;;;;;;;;;5049678;28;20504;-75
2022/06/13 07:15:42;;;;;;;5.47;2.47;;;;;;;;;;5047213;28;20822;-75
2022/06/13 07:18:08;;;;;;;7.82;2.25;;;;;;;;;;5041358;28;20033;-76
2022/06/13 07:20:34;;;;;;;5.13;2.28;;;;;;;;;;5048620;28;20042;-77
2022/06/13 07:22:59;;;;;;;4.95;2.08;;;;;;;;;;5046846;28;20548;-76
2022/06/13 07:25:27;;;;;;;5.53;2.65;;;;;;;;;;5044509;28;20032;-76
2022/06/13 07:27:52;;;;;;;7.20;2.42;;;;;;;;;;5045270;28;20029;-75
2022/06/13 07:30:20;;;;;;;4.40;1.80;;;;;;;;;;5045610;28;20488;-73
2022/06/13 07:32:47;;;;;;;5.30;2.30;;;;;;;;;;5045105;28;20028;-75
2022/06/13 07:35:15;;;;;;;6.55;2.15;;;;;;;;;;5044723;28;20029;-74
2022/06/13 07:40:26;;;;;;;4.47;2.15;;;;;;;;;;5044137;28;20043;-77
2022/06/13 07:42:55;;;;;;;3.83;1.92;;;;;;;;;;5048726;28;20049;-76
2022/06/13 07:45:24;;;;;;;5.45;2.47;;;;;;;;;;5048842;28;20483;-76
2022/06/13 07:47:52;;;;;;;6.55;2.13;;;;;;;;;;5046555;28;20032;-76
2022/06/13 07:50:21;;;;;;;3.83;1.73;;;;;;;;;;5049379;28;20546;-77
2022/06/13 07:52:47;;;;;;;4.95;2.05;;;;;;;;;;5050317;28;20067;-77
2022/06/13 07:55:13;;;;;;;4.75;1.98;;;;;;;;;;5050020;28;20709;-78
2022/06/13 07:57:38;;;;;;;6.72;2.33;;;;;;;;;;5048819;28;20167;-78
2022/06/13 08:00:08;;;;;;;4.50;1.80;;;;;;;;;;5048276;28;20021;-76
2022/06/13 08:02:34;;;;;;;5.90;1.88;;;;;;;;;;5049982;28;20032;-75
2022/06/13 08:05:00;;;;;;;5.88;1.85;;;;;;;;;;5049733;28;20479;-77
2022/06/13 08:07:26;;;;;;;5.78;1.70;;;;;;;;;;5051172;28;20108;-76
2022/06/13 08:09:51;;;;;;;4.97;1.80;;;;;;;;;;5050716;28;20067;-78
2022/06/13 08:12:18;;;;;;;4.93;2.05;;;;;;;;;;5050404;28;20032;-77
2022/06/13 08:14:47;;;;;;;5.05;1.90;;;;;;;;;;5050773;28;20033;-77
2022/06/13 08:17:19;;;;;;;5.68;2.20;;;;;;;;;;5047954;28;20051;-74
2022/06/13 08:19:46;;;;;;;6.15;2.28;;;;;;;;;;5049029;28;20027;-77
2022/06/13 08:22:11;;;;;;;5.20;2.05;;;;;;;;;;5049843;28;20025;-77
2022/06/13 08:24:37;;;;;;;4.25;1.80;;;;;;;;;;5045859;28;20028;-75
2022/06/13 08:27:03;;;;;;;5.78;2.25;;;;;;;;;;5049624;28;20016;-77
2022/06/13 08:29:29;;;;;;;4.05;1.80;;;;;;;;;;5051295;28;20100;-78
2022/06/13 08:31:54;;;;;;;4.13;1.85;;;;;;;;;;5048668;28;20044;-78
2022/06/13 08:34:20;;;;;;;4.68;1.70;;;;;;;;;;5049497;28;20155;-77
2022/06/13 08:36:46;;;;;;;4.55;1.80;;;;;;;;;;5046256;28;20032;-77
2022/06/13 08:39:12;;;;;;;5.15;1.88;;;;;;;;;;5048285;28;20549;-79
2022/06/13 08:41:38;;;;;;;3.85;1.65;;;;;;;;;;5053410;28;20110;-77
2022/06/13 08:44:28;;;;;;;5.07;1.70;;;;;;;;;;5052505;28;20036;-78
2022/06/13 08:46:55;;;;;;;7.07;2.20;;;;;;;;;;5048545;28;20542;-76
2022/06/13 08:49:36;;;;;;;3.80;1.83;;;;;;;;;;5050851;28;20466;-76
2022/06/13 08:52:26;;;;;;;4.55;1.52;;;;;;;;;;5050677;28;20040;-78
2022/06/13 08:55:12;;;;;;;4.20;1.80;;;;;;;;;;5048688;28;20035;-76
2022/06/13 08:57:44;;;;;;;3.10;1.42;;;;;;;;;;5048940;28;20060;-77
2022/06/13 09:00:20;;;;;;;4.05;1.58;;;;;;;;;;5043449;28;20479;-75
2022/06/13 09:03:07;;;;;;;3.47;1.90;;;;;;;;;;5048982;28;20039;-74
2022/06/13 09:05:56;;;;;;;3.15;1.67;;;;;;;;;;5046881;28;20036;-79
2022/06/13 09:08:41;;;;;;;3.92;2.13;;;;;;;;;;5042599;28;20040;-75
2022/06/13 09:11:33;;;;;;;5.72;1.65;;;;;;;;;;5048152;28;20146;-78
2022/06/13 09:14:11;;;;;;;;;;;;;;;;;;5047688;28;20035;-76
2022/06/13 09:16:41;;;;;;;3.13;1.70;;;;;;;;;;5048155;28;20375;-77
2022/06/13 09:19:22;;;;;;;5.85;1.90;;;;;;;;;;5049375;28;20062;-78
2022/06/13 09:22:01;;;;;;;6.13;2.00;;;;;;;;;;5048174;28;20143;-76
2022/06/13 09:24:32;;;;;;;5.88;1.90;;;;;;;;;;5047449;28;20037;-76
2022/06/13 09:27:12;;;;;;;3.83;1.90;;;;;;;;;;5043867;28;20139;-75
2022/06/13 09:29:48;;;;;;;2.90;1.65;;;;;;;;;;5047446;28;20116;-78
2022/06/13 09:32:18;;;;;;;6.35;1.83;;;;;;;;;;5049448;28;20033;-77
2022/06/13 09:35:00;;;;;;;3.95;1.60;;;;;;;;;;5053776;28;20029;-77
2022/06/13 09:37:36;;;;;;;3.75;1.50;;;;;;;;;;5052324;28;20079;-76
2022/06/13 09:40:01;;;;;;;3.88;1.67;;;;;;;;;;5050396;28;20079;-75
2022/06/13 09:42:45;;;;;;;5.70;1.77;;;;;;;;;;5051865;28;20052;-77
2022/06/13 09:45:22;;;;;;;4.25;1.67;;;;;;;;;;5045962;28;20021;-76
2022/06/13 09:48:09;;;;;;;3.50;1.67;;;;;;;;;;5053736;28;20028;-76
2022/06/13 09:51:13;;;;;;;3.20;1.75;;;;;;;;;;5051630;28;20044;-76
2022/06/13 09:53:57;;;;;;;4.88;1.83;;;;;;;;;;5043667;28;20415;-78
2022/06/13 09:56:33;;;;;;;4.25;1.95;;;;;;;;;;5032510;28;20605;-76
2022/06/13 09:59:11;;;;;;;2.67;1.60;;;;;;;;;;5033294;28;20033;-77
2022/06/13 10:01:52;;;;;;;3.70;1.60;;;;;;;;;;5052596;28;20037;-79
2022/06/13 10:04:30;;;;;;;;;;;;;;;;;;5032216;28;20533;-76
2022/06/13 10:07:10;;;;;;;6.35;1.80;;;;;;;;;;5032488;28;20003;-76
2022/06/13 10:09:41;;;;;;;2.17;1.40;;;;;;;;;;5049828;28;20029;-76
2022/06/13 10:12:19;;;;;;;6.72;1.88;;;;;;;;;;5032439;28;20461;-76
2022/06/13 10:15:10;;;;;;;3.92;1.73;;;;;;;;;;5043787;28;20092;-74
2022/06/13 10:17:49;;;;;;;3.45;1.70;;;;;;;;;;5050235;28;20043;-71
2022/06/13 10:20:53;;;;;;;3.63;1.50;;;;;;;;;;5050720;28;20470;-73
2022/06/13 10:23:32;;;;;;;3.63;1.80;;;;;;;;;;5052885;28;20029;-72
2022/06/13 10:26:09;;;;;;;3.03;1.50;;;;;;;;;;5052387;28;20057;-74
2022/06/13 10:28:40;;;;;;;5.80;1.70;;;;;;;;;;5052229;28;20028;-75
2022/06/13 10:31:11;;;;;;;3.95;1.88;;;;;;;;;;5049921;28;20378;-75
2022/06/13 10:34:03;;;;;;;3.55;1.60;;;;;;;;;;5050561;28;20071;-76
2022/06/13 10:36:34;;;;;;;;;;;;;;;;;;5046579;28;20029;-74
2022/06/13 10:39:13;;;;;;;4.53;1.83;;;;;;;;;;5050361;28;19908;-75
2022/06/13 10:41:42;;;;;;;4.57;1.73;;;;;;;;;;5047822;28;20132;-73
2022/06/13 10:44:11;;;;;;;4.03;1.83;;;;;;;;;;5049643;28;20040;-78
2022/06/13 10:46:41;;;;;;;3.97;1.48;;;;;;;;;;5049109;28;20036;-74
2022/06/13 10:49:16;;;;;;;4.32;1.60;;;;;;;;;;5049755;28;20029;-73
2022/06/13 10:51:43;;;;;;;5.75;1.70;;;;;;;;;;5050403;28;20025;-73
2022/06/13 10:54:35;;;;;;;5.75;1.73;;;;;;;;;;5046383;28;20140;-72
2022/06/13 10:57:09;;;;;;;3.83;1.92;;;;;;;;;;5052675;28;20040;-69
2022/06/13 10:59:36;;;;;;;3.47;1.73;;;;;;;;;;5038580;28;20029;-74
2022/06/13 11:02:19;;;;;;;3.30;1.92;;;;;;;;;;5050206;28;20070;-74
2022/06/13 11:04:44;;;;;;;4.38;1.83;;;;;;;;;;5050284;28;20043;-73
2022/06/13 11:07:19;;;;;;;3.03;1.42;;;;;;;;;;5050596;28;20028;-76
2022/06/13 11:09:55;;;;;;;7.32;1.90;;;;;;;;;;5047829;28;20479;-73
2022/06/13 11:12:32;;;;;;;3.72;1.67;;;;;;;;;;5050306;28;20037;-75
2022/06/13 11:23:44;;;;;;;5.25;1.95;;;;;;;;;;5049860;28;20098;-72
2022/06/13 11:27:39;;;;;;;3.80;1.63;;;;;;;;;;5049872;28;20028;-69
2022/06/13 11:28:56;;;;;;;3.13;1.50;;;;;;;;;;5029329;28;20036;-74
2022/06/13 11:31:25;;;;;;;4.65;1.80;;;;;;;;;;5029733;28;20033;-70
2022/06/13 11:33:54;;;;;;;5.50;1.90;;;;;;;;;;5029603;28;20029;-74
2022/06/13 11:36:28;;;;;;;5.65;1.80;;;;;;;;;;5029808;28;20018;-70
2022/06/13 11:38:56;;;;;;;4.85;2.00;;;;;;;;;;5033032;28;20036;-69
2022/06/13 11:41:35;;;;;;;6.00;2.10;;;;;;;;;;5049762;28;20233;-69
2022/06/13 11:44:08;;;;;;;3.97;1.73;;;;;;;;;;5049462;28;20025;-70
2022/06/13 11:46:55;;;;;;;6.18;1.85;;;;;;;;;;5047709;28;20060;-69
2022/06/13 11:49:35;;;;;;;5.47;1.80;;;;;;;;;;5047981;28;20128;-69
2022/06/13 11:55:18;;;;;;;6.15;2.00;;;;;;;;;;5049262;28;20040;-74
2022/06/13 11:57:51;;;;;;;5.47;2.00;;;;;;;;;;5049102;28;20028;-68
2022/06/13 12:00:17;;;;;;;5.32;1.80;;;;;;;;;;5046035;28;20025;-70
2022/06/13 12:02:52;;;;;;;6.95;2.25;;;;;;;;;;5047101;28;20025;-69
2022/06/13 12:05:31;;;;;;;6.18;1.85;;;;;;;;;;5036841;28;20082;-71
2022/06/13 12:08:19;;;;;;;6.13;1.73;;;;;;;;;;5043205;28;20913;-68
2022/06/13 12:11:20;;;;;;;3.88;1.58;;;;;;;;;;5036807;28;20041;-69
2022/06/13 12:13:47;;;;;;;5.97;1.90;;;;;;;;;;5045282;28;20562;-69
2022/06/13 12:16:20;;;;;;;5.82;1.90;;;;;;;;;;5044396;28;20423;-76
2022/06/13 12:18:59;;;;;;;4.03;1.98;;;;;;;;;;5043759;28;20394;-71
2022/06/13 12:21:40;;;;;;;3.53;1.80;;;;;;;;;;5044294;28;20097;-70
2022/06/13 12:24:21;;;;;;;4.40;2.00;;;;;;;;;;5044633;28;20025;-69
2022/06/13 12:27:03;;;;;;;3.88;1.60;;;;;;;;;;5042766;28;20035;-69
2022/06/13 12:29:40;;;;;;;;;;;;;;;;;;5044705;28;20062;-70
2022/06/13 12:32:21;;;;;;;5.20;1.67;;;;;;;;;;5042876;28;19916;-70
2022/06/13 12:34:52;;;;;;;5.85;2.20;;;;;;;;;;5044971;28;20878;-70
2022/06/13 12:37:48;;;;;;;3.25;1.73;;;;;;;;;;5044497;28;20402;-69
2022/06/13 12:40:24;;;;;;;6.05;2.13;;;;;;;;;;5043762;28;20079;-74
2022/06/13 12:43:37;;;;;;;6.18;2.17;;;;;;;;;;5043831;28;20502;-71
2022/06/13 12:46:17;;;;;;;6.25;1.77;;;;;;;;;;4982476;28;20051;-69
2022/06/13 12:49:01;;;;;;;4.90;2.10;;;;;;;;;;5041898;28;20029;-73
2022/06/13 12:51:38;;;;;;;7.70;2.20;;;;;;;;;;5042907;28;20383;-72
2022/06/13 12:54:16;;;;;;;5.15;2.20;;;;;;;;;;5044220;28;20082;-74
2022/06/13 12:56:53;;;;;;;4.63;2.33;;;;;;;;;;5044267;28;20021;-72
2022/06/13 12:59:40;;;;;;;5.07;2.05;;;;;;;;;;5043003;28;20024;-72
2022/06/13 13:02:26;;;;;;;4.15;2.00;;;;;;;;;;5043595;28;20116;-71
2022/06/13 13:05:07;;;;;;;5.80;2.53;;;;;;;;;;5044098;28;20036;-70
2022/06/13 13:07:47;;;;;;;5.05;2.22;;;;;;;;;;5043981;28;20036;-69
2022/06/13 13:10:20;;;;;;;5.90;2.00;;;;;;;;;;5042986;28;20497;-69
2022/06/13 13:13:19;;;;;;;5.38;2.30;;;;;;;;;;5046639;28;20035;-71
2022/06/13 13:16:09;;;;;;;5.05;2.08;;;;;;;;;;5048611;28;20025;-70
2022/06/13 13:18:59;;;;;;;7.03;2.05;;;;;;;;;;5047826;28;20044;-71
2022/06/13 13:22:02;;;;;;;5.50;2.10;;;;;;;;;;5048169;28;20035;-72
2022/06/13 13:24:40;;;;;;;5.88;2.08;;;;;;;;;;5047913;28;20739;-72
2022/06/13 13:27:09;;;;;;;4.45;2.20;;;;;;;;;;5048206;28;20438;-72
2022/06/13 13:29:47;;;;;;;7.22;2.78;;;;;;;;;;5047060;28;20029;-73
2022/06/13 13:32:50;;;;;;;7.60;2.40;;;;;;;;;;5046659;28;20056;-73
2022/06/13 13:35:48;;;;;;;3.90;2.00;;;;;;;;;;5041435;28;20040;-70
2022/06/13 13:38:18;;;;;;;3.75;2.03;;;;;;;;;;5010643;28;20595;-71
2022/06/13 13:40:52;;;;;;;4.43;2.10;;;;;;;;;;5045157;28;20029;-71
2022/06/13 13:43:43;;;;;;;4.53;2.38;;;;;;;;;;5047209;28;20419;-72
2022/06/13 13:46:13;;;;;;;5.47;2.22;;;;;;;;;;5040284;28;20025;-73
2022/06/13 13:48:53;;;;;;;4.35;2.10;;;;;;;;;;5046430;28;20025;-72
2022/06/13 13:51:45;;;;;;;5.47;2.42;;;;;;;;;;5047361;28;20057;-71
2022/06/13 13:54:27;;;;;;;3.88;2.33;;;;;;;;;;5044147;28;20093;-73
2022/06/13 13:57:06;;;;;;;6.30;2.42;;;;;;;;;;5047348;28;20761;-71
2022/06/13 13:59:35;;;;;;;5.00;2.25;;;;;;;;;;5046905;28;20123;-71
2022/06/13 14:02:27;;;;;;;4.88;2.10;;;;;;;;;;5047699;28;20029;-72
2022/06/13 14:05:07;;;;;;;4.70;2.30;;;;;;;;;;5046824;28;20048;-71
2022/06/13 14:07:56;;;;;;;6.15;2.30;;;;;;;;;;5047366;28;20035;-72
2022/06/13 14:10:24;;;;;;;2.97;2.15;;;;;;;;;;5047072;28;20061;-75
2022/06/13 14:13:17;;;;;;;4.43;2.17;;;;;;;;;;5046539;28;20040;-72
2022/06/13 14:15:48;;;;;;;5.63;2.20;;;;;;;;;;5046762;28;20024;-71
2022/06/13 14:18:20;;;;;;;6.32;2.55;;;;;;;;;;5046616;28;20060;-71
2022/06/13 14:20:46;;;;;;;5.38;2.20;;;;;;;;;;5047074;28;20159;-73
2022/06/13 14:23:19;;;;;;;5.15;2.13;;;;;;;;;;5045392;28;20131;-71
2022/06/13 14:25:45;;;;;;;5.75;2.17;;;;;;;;;;5044251;28;20236;-70
2022/06/13 14:28:45;;;;;;;5.72;2.30;;;;;;;;;;5046755;28;20120;-71
2022/06/13 14:31:11;;;;;;;7.10;2.40;;;;;;;;;;5041402;28;20037;-70
2022/06/13 14:36:48;;;;;;;4.50;2.50;;;;;;;;;;5045581;28;20048;-70
2022/06/13 14:39:27;;;;;;;6.35;2.50;;;;;;;;;;5045082;28;20498;-73
2022/06/13 14:41:52;;;;;;;4.20;2.03;;;;;;;;;;5045861;28;20043;-71
2022/06/13 14:44:33;;;;;;;9.25;2.72;;;;;;;;;;5047197;28;20029;-72
2022/06/13 14:47:23;;;;;;;5.40;2.53;;;;;;;;;;5047281;28;20108;-71
2022/06/13 14:49:55;;;;;;;5.93;2.25;;;;;;;;;;5045961;28;20443;-70
2022/06/13 14:52:28;;;;;;;4.45;2.13;;;;;;;;;;5046560;28;20025;-71
2022/06/13 14:55:02;;;;;;;7.35;2.33;;;;;;;;;;5046047;28;20119;-73
2022/06/13 14:57:27;;;;;;;4.00;2.10;;;;;;;;;;5041288;28;20862;-75
2022/06/13 15:00:11;;;;;;;4.77;2.23;;;;;;;;;;5040824;28;20040;-75
2022/06/13 15:03:02;;;;;;;5.57;2.55;;;;;;;;;;5040295;28;20948;-72
2022/06/13 15:05:30;;;;;;;6.85;2.08;;;;;;;;;;5032105;28;20041;-73
2022/06/13 15:08:01;;;;;;;3.22;2.00;;;;;;;;;;5043076;28;20029;-72
2022/06/13 15:10:33;;;;;;;4.70;2.10;;;;;;;;;;5045178;28;20028;-72
2022/06/13 15:12:59;;;;;;;7.03;2.25;;;;;;;;;;5046396;28;20331;-72
2022/06/13 15:15:31;;;;;;;5.80;2.40;;;;;;;;;;5045640;28;20036;-73
2022/06/13 15:17:56;;;;;;;4.43;2.10;;;;;;;;;;5043600;28;20091;-70
2022/06/13 15:20:27;;;;;;;6.15;2.00;;;;;;;;;;5041519;28;20037;-72
2022/06/13 15:22:59;;;;;;;6.50;2.20;;;;;;;;;;5042986;28;20043;-71
2022/06/13 15:25:42;;;;;;;6.55;2.10;;;;;;;;;;5041998;28;20033;-71
2022/06/13 15:28:10;;;;;;;3.58;2.03;;;;;;;;;;5039804;28;20613;-71
2022/06/13 15:30:42;;;;;;;3.88;2.25;;;;;;;;;;5043938;28;20061;-71
2022/06/13 15:33:20;;;;;;;4.38;2.28;;;;;;;;;;5046060;28;20035;-69
2022/06/13 15:35:53;;;;;;;4.03;1.88;;;;;;;;;;5045887;28;20031;-73
2022/06/13 15:38:30;;;;;;;3.80;2.08;;;;;;;;;;5045674;28;20455;-78
2022/06/13 15:40:59;;;;;;;4.68;1.90;;;;;;;;;;5045668;28;20039;-71
2022/06/13 15:43:39;;;;;;;4.70;2.15;;;;;;;;;;5046765;28;20017;-72
2022/06/13 15:46:05;;;;;;;4.82;2.17;;;;;;;;;;5046135;28;20029;-70
2022/06/13 15:48:31;;;;;;;4.95;2.00;;;;;;;;;;5045686;28;20052;-71
2022/06/13 15:51:24;;;;;;;5.18;2.20;;;;;;;;;;5045406;28;20664;-70
2022/06/13 15:53:49;;;;;;;5.32;2.05;;;;;;;;;;5046232;28;20056;-71
2022/06/13 15:56:36;;;;;;;5.22;1.92;;;;;;;;;;5045221;28;20514;-72